Time;durP1;ratioP1;P1;durP2;ratioP2;P2;SDS_P1;SDS_P2;PMS_P1;PMS_P2;Temp;Humidity;BMP_temperature;BMP_pressure;BME280_temperature;BME280_humidity;BME280_pressure;Samples;Min_cycle;Max_cycle;Signal;HPM_P1;HPM_P2
2022/10/15 00:01:46;;;;;;;1.42;0.50;;;13.80;99.90;;;;;;5074920;28;20071;-77
2022/10/15 00:04:12;;;;;;;0.40;0.40;;;13.80;99.90;;;;;;5073581;28;20048;-78
2022/10/15 00:06:38;;;;;;;0.68;0.40;;;13.90;99.90;;;;;;5074726;28;20059;-79
2022/10/15 00:09:03;;;;;;;0.93;0.60;;;13.80;99.90;;;;;;5074753;28;20077;-77
2022/10/15 00:11:32;;;;;;;0.38;0.32;;;13.70;99.90;;;;;;5074797;28;20416;-79
2022/10/15 00:13:59;;;;;;;0.93;0.45;;;13.80;99.90;;;;;;5073161;28;20097;-77
2022/10/15 00:16:26;;;;;;;0.68;0.32;;;13.80;99.90;;;;;;5074026;28;20048;-76
2022/10/15 00:18:55;;;;;;;5.25;1.02;;;13.80;99.90;;;;;;5072232;28;20040;-76
2022/10/15 00:21:21;;;;;;;1.08;0.40;;;13.80;99.90;;;;;;5073895;28;20048;-76
2022/10/15 00:23:48;;;;;;;1.63;0.52;;;13.70;99.90;;;;;;5074484;28;20488;-76
2022/10/15 00:26:17;;;;;;;0.95;0.60;;;13.70;99.90;;;;;;5074043;28;20044;-76
2022/10/15 00:28:43;;;;;;;0.65;0.60;;;13.60;99.90;;;;;;5072740;28;20036;-79
2022/10/15 00:31:14;;;;;;;0.55;0.50;;;13.70;99.90;;;;;;5074265;28;20131;-76
2022/10/15 00:33:40;;;;;;;1.55;0.80;;;13.60;99.90;;;;;;5073042;28;20072;-78
2022/10/15 00:36:15;;;;;;;2.05;0.60;;;13.60;99.90;;;;;;5074398;28;20049;-76
2022/10/15 00:38:41;;;;;;;1.00;0.60;;;13.60;99.90;;;;;;5073059;28;20050;-76
2022/10/15 00:41:13;;;;;;;3.60;0.77;;;13.70;99.90;;;;;;5073757;28;20070;-79
2022/10/15 00:43:49;;;;;;;0.68;0.45;;;13.70;99.90;;;;;;5073829;28;20032;-76
2022/10/15 00:46:23;;;;;;;0.93;0.50;;;13.70;99.90;;;;;;5074189;28;20048;-76
2022/10/15 00:48:56;;;;;;;2.60;0.55;;;13.70;99.90;;;;;;5074314;28;20495;-76
2022/10/15 00:51:25;;;;;;;1.05;0.60;;;13.60;99.90;;;;;;5073022;28;20529;-76
2022/10/15 00:53:51;;;;;;;0.98;0.50;;;13.60;99.90;;;;;;5072856;28;20037;-78
2022/10/15 00:56:20;;;;;;;1.20;0.60;;;13.50;99.90;;;;;;5073841;28;20094;-77
2022/10/15 00:58:47;;;;;;;1.38;0.57;;;13.50;99.90;;;;;;5073807;28;20040;-79
2022/10/15 01:01:12;;;;;;;0.63;0.30;;;13.40;99.90;;;;;;5074075;28;20028;-75
2022/10/15 01:03:38;;;;;;;0.40;0.40;;;13.50;99.90;;;;;;5072557;28;20036;-77
2022/10/15 01:06:04;;;;;;;0.70;0.50;;;13.50;99.90;;;;;;5074309;28;20385;-76
2022/10/15 01:08:30;;;;;;;1.10;0.50;;;13.50;99.90;;;;;;5073717;28;20090;-76
2022/10/15 01:11:22;;;;;;;1.13;0.60;;;13.40;99.90;;;;;;5073988;28;20079;-77
2022/10/15 01:13:50;;;;;;;1.55;0.70;;;13.30;99.90;;;;;;5051584;28;20041;-77
2022/10/15 01:16:23;;;;;;;1.80;0.70;;;13.30;99.90;;;;;;5071973;28;20071;-78
2022/10/15 01:19:36;;;;;;;3.33;0.55;;;13.30;99.90;;;;;;5073453;28;20124;-78
2022/10/15 01:22:25;;;;;;;3.80;0.60;;;13.40;99.90;;;;;;5063686;28;20032;-77
2022/10/15 01:25:08;;;;;;;3.42;0.77;;;13.40;99.90;;;;;;5073576;28;20036;-77
2022/10/15 01:27:40;;;;;;;2.47;0.60;;;13.40;99.90;;;;;;5072305;28;20408;-77
2022/10/15 01:30:22;;;;;;;1.67;0.70;;;13.40;99.90;;;;;;5073642;28;20102;-78
2022/10/15 01:33:17;;;;;;;0.75;0.50;;;13.40;99.90;;;;;;5076992;28;20170;-78
2022/10/15 01:36:08;;;;;;;0.75;0.55;;;13.40;99.90;;;;;;5068397;28;20037;-78
2022/10/15 01:38:52;;;;;;;1.00;0.57;;;13.40;99.90;;;;;;5076380;28;20047;-77
2022/10/15 01:41:45;;;;;;;0.52;0.40;;;13.40;99.90;;;;;;5076321;28;20032;-77
2022/10/15 01:44:45;;;;;;;1.85;0.60;;;13.40;99.90;;;;;;5077098;28;20554;-77
2022/10/15 01:47:18;;;;;;;0.30;0.22;;;13.30;99.90;;;;;;5077393;28;20507;-78
2022/10/15 01:49:46;;;;;;;0.30;0.30;;;13.40;99.90;;;;;;5077222;28;20041;-78
2022/10/15 01:52:16;;;;;;;1.00;0.43;;;13.30;99.90;;;;;;5072222;28;20423;-77
2022/10/15 01:54:46;;;;;;;2.67;0.52;;;13.40;99.90;;;;;;5056079;28;20489;-78
2022/10/15 01:57:13;;;;;;;1.00;0.25;;;13.50;99.90;;;;;;5057336;28;20037;-77
2022/10/15 01:59:41;;;;;;;0.30;0.20;;;13.50;99.90;;;;;;5057471;28;20044;-78
2022/10/15 02:02:09;;;;;;;0.80;0.50;;;13.50;99.90;;;;;;5057346;28;20036;-77
2022/10/15 02:04:34;;;;;;;0.90;0.30;;;13.60;99.90;;;;;;5057182;28;20044;-77
2022/10/15 02:07:12;;;;;;;5.20;0.30;;;13.50;99.90;;;;;;5056930;28;20053;-77
2022/10/15 02:09:48;;;;;;;1.75;0.73;;;13.50;99.90;;;;;;5057046;28;20047;-78
2022/10/15 02:12:45;;;;;;;0.50;0.40;;;13.50;99.90;;;;;;5057024;28;20045;-77
2022/10/15 02:15:16;;;;;;;0.57;0.40;;;13.50;99.90;;;;;;5056966;28;20037;-78
2022/10/15 02:18:01;;;;;;;1.85;0.65;;;13.50;99.90;;;;;;5057013;28;20025;-77
2022/10/15 02:20:58;;;;;;;1.20;0.40;;;13.50;99.90;;;;;;5055629;28;20091;-78
2022/10/15 02:23:45;;;;;;;1.02;0.38;;;13.50;99.90;;;;;;5055403;28;20511;-78
2022/10/15 02:26:13;;;;;;;1.00;0.30;;;13.50;99.90;;;;;;5056709;28;20056;-78
2022/10/15 02:28:44;;;;;;;2.72;0.50;;;13.50;99.90;;;;;;5056612;28;20036;-78
2022/10/15 02:31:14;;;;;;;0.40;0.35;;;13.60;99.90;;;;;;5056695;28;20052;-77
2022/10/15 02:33:40;;;;;;;0.63;0.40;;;13.50;99.90;;;;;;5055251;28;20467;-77
2022/10/15 02:36:07;;;;;;;0.43;0.32;;;13.50;99.90;;;;;;5056518;28;20496;-78
2022/10/15 02:38:36;;;;;;;1.35;0.40;;;13.50;99.90;;;;;;5056595;28;20025;-78
2022/10/15 02:41:02;;;;;;;4.13;0.40;;;13.50;99.90;;;;;;5055133;28;20047;-78
2022/10/15 02:43:30;;;;;;;0.50;0.30;;;13.40;99.90;;;;;;5055095;28;20485;-78
2022/10/15 02:45:55;;;;;;;1.58;0.32;;;13.40;99.90;;;;;;5056189;28;20052;-78
2022/10/15 02:48:21;;;;;;;2.20;0.60;;;13.50;99.90;;;;;;5055968;28;20036;-77
2022/10/15 02:50:47;;;;;;;0.95;0.50;;;13.50;99.90;;;;;;5056250;28;20065;-77
2022/10/15 02:53:13;;;;;;;0.20;0.20;;;13.50;99.90;;;;;;5056344;28;20071;-78
2022/10/15 02:55:39;;;;;;;1.42;0.30;;;13.40;99.90;;;;;;5056234;28;20040;-78
2022/10/15 02:58:04;;;;;;;1.35;0.50;;;13.30;99.90;;;;;;5054921;28;20571;-77
2022/10/15 03:00:30;;;;;;;0.95;0.30;;;13.20;99.90;;;;;;5054801;28;20060;-77
2022/10/15 03:02:56;;;;;;;1.50;0.40;;;13.20;99.90;;;;;;5054581;28;20124;-77
2022/10/15 03:05:22;;;;;;;1.02;0.38;;;13.10;99.90;;;;;;5057106;28;20052;-76
2022/10/15 03:07:47;;;;;;;0.65;0.35;;;13.10;99.90;;;;;;5076161;28;20040;-75
2022/10/15 03:10:13;;;;;;;0.22;0.22;;;13.10;99.90;;;;;;5076069;28;20041;-80
2022/10/15 03:12:39;;;;;;;0.60;0.50;;;13.10;99.90;;;;;;5075910;28;20056;-79
2022/10/15 03:15:06;;;;;;;3.60;0.70;;;13.10;99.90;;;;;;5075918;28;20038;-78
2022/10/15 03:17:32;;;;;;;0.35;0.35;;;13.10;99.90;;;;;;5075471;28;20056;-77
2022/10/15 03:19:57;;;;;;;0.65;0.47;;;13.00;99.90;;;;;;5075635;28;20396;-76
2022/10/15 03:22:23;;;;;;;0.73;0.40;;;13.10;99.90;;;;;;5075808;28;20449;-79
2022/10/15 03:24:49;;;;;;;2.97;0.57;;;13.00;99.90;;;;;;5074470;28;20033;-77
2022/10/15 03:27:15;;;;;;;0.60;0.30;;;13.10;99.90;;;;;;5075567;28;20433;-76
2022/10/15 03:29:40;;;;;;;0.75;0.30;;;13.10;99.90;;;;;;5075792;28;20039;-76
2022/10/15 03:32:06;;;;;;;6.07;0.40;;;13.20;99.90;;;;;;5074065;28;20496;-78
2022/10/15 03:34:32;;;;;;;1.10;0.40;;;13.30;99.90;;;;;;5074135;28;20551;-79
2022/10/15 03:36:58;;;;;;;1.48;0.32;;;13.30;99.90;;;;;;5073567;28;20044;-78
2022/10/15 03:39:23;;;;;;;2.20;0.47;;;13.30;99.90;;;;;;5075394;28;20059;-78
2022/10/15 03:41:52;;;;;;;1.55;0.32;;;13.40;99.90;;;;;;5075077;28;20040;-76
2022/10/15 03:44:18;;;;;;;1.35;0.20;;;13.30;99.90;;;;;;5075063;28;20047;-77
2022/10/15 03:46:44;;;;;;;0.20;0.20;;;13.20;99.90;;;;;;5073686;28;20056;-78
2022/10/15 03:49:10;;;;;;;0.20;0.20;;;13.20;99.90;;;;;;5075173;28;20049;-78
2022/10/15 03:51:36;;;;;;;2.92;0.30;;;13.30;99.90;;;;;;5075159;28;20048;-77
2022/10/15 03:54:02;;;;;;;0.20;0.20;;;13.30;99.90;;;;;;5074612;28;20124;-77
2022/10/15 03:56:28;;;;;;;1.33;0.50;;;13.10;99.90;;;;;;5075065;28;20050;-76
2022/10/15 03:58:54;;;;;;;0.95;0.22;;;13.00;99.90;;;;;;5075128;28;20041;-79
2022/10/15 04:01:20;;;;;;;0.90;0.40;;;13.20;99.90;;;;;;5073586;28;20037;-76
2022/10/15 04:03:45;;;;;;;3.40;0.35;;;13.20;99.90;;;;;;5073562;28;20040;-77
2022/10/15 04:06:11;;;;;;;0.20;0.15;;;13.10;99.90;;;;;;5074624;28;20059;-79
2022/10/15 04:08:37;;;;;;;1.55;0.52;;;13.20;99.90;;;;;;5074657;28;20503;-76
2022/10/15 04:11:03;;;;;;;0.30;0.30;;;13.30;99.90;;;;;;5074713;28;20093;-75
2022/10/15 04:13:28;;;;;;;1.00;0.40;;;13.30;99.90;;;;;;5074495;28;20086;-75
2022/10/15 04:15:54;;;;;;;0.50;0.30;;;13.30;99.90;;;;;;5074485;28;20397;-76
2022/10/15 04:18:21;;;;;;;1.00;0.25;;;13.30;99.90;;;;;;5074365;28;20365;-75
2022/10/15 04:20:49;;;;;;;0.90;0.40;;;13.30;99.90;;;;;;5074514;28;20423;-76
2022/10/15 04:23:16;;;;;;;0.95;0.40;;;13.20;99.90;;;;;;5074553;28;20487;-76
2022/10/15 04:25:42;;;;;;;0.38;0.30;;;13.30;99.90;;;;;;5074170;28;20500;-77
2022/10/15 04:28:08;;;;;;;0.22;0.20;;;13.30;99.90;;;;;;5074362;28;20067;-79
2022/10/15 04:30:34;;;;;;;1.02;0.30;;;13.20;99.90;;;;;;5072955;28;20040;-76
2022/10/15 04:33:00;;;;;;;1.17;0.43;;;13.30;99.90;;;;;;5073031;28;20048;-76
2022/10/15 04:35:26;;;;;;;3.63;0.35;;;13.30;99.90;;;;;;5074433;28;20089;-76
2022/10/15 04:37:52;;;;;;;0.25;0.20;;;13.30;99.90;;;;;;5074182;28;20045;-80
2022/10/15 04:40:18;;;;;;;1.55;0.95;;;13.20;99.90;;;;;;5073046;28;20086;-79
2022/10/15 04:42:44;;;;;;;0.35;0.20;;;13.10;99.90;;;;;;5072943;28;20037;-79
2022/10/15 04:45:10;;;;;;;0.80;0.40;;;13.00;99.90;;;;;;5074076;28;20404;-76
2022/10/15 04:47:36;;;;;;;0.30;0.30;;;13.10;99.90;;;;;;5074201;28;20040;-76
2022/10/15 04:50:02;;;;;;;0.70;0.30;;;13.00;99.90;;;;;;5072874;28;20463;-75
2022/10/15 04:52:28;;;;;;;0.30;0.28;;;13.00;99.90;;;;;;5074214;28;20044;-75
2022/10/15 04:54:54;;;;;;;0.70;0.30;;;13.00;99.90;;;;;;5072847;28;20033;-80
2022/10/15 04:57:19;;;;;;;0.82;0.40;;;12.90;99.90;;;;;;5073895;28;20048;-79
2022/10/15 04:59:45;;;;;;;1.08;0.70;;;12.90;99.90;;;;;;5072546;28;20044;-78
2022/10/15 05:02:11;;;;;;;1.10;0.30;;;12.90;99.90;;;;;;5072767;28;20500;-76
2022/10/15 05:04:37;;;;;;;0.40;0.30;;;12.90;99.90;;;;;;5074009;28;20040;-75
2022/10/15 05:07:02;;;;;;;0.47;0.30;;;12.90;99.90;;;;;;5072922;28;20135;-79
2022/10/15 05:09:28;;;;;;;1.50;0.43;;;12.90;99.90;;;;;;5073509;28;20527;-76
2022/10/15 05:11:54;;;;;;;1.02;0.50;;;12.90;99.90;;;;;;5073890;28;20040;-76
2022/10/15 05:14:24;;;;;;;0.30;0.30;;;13.00;99.90;;;;;;5073605;28;20488;-75
2022/10/15 05:16:50;;;;;;;0.52;0.30;;;13.10;99.90;;;;;;5073041;28;20036;-77
2022/10/15 05:19:16;;;;;;;0.20;0.20;;;13.10;99.90;;;;;;5073417;28;20135;-75
2022/10/15 05:21:42;;;;;;;1.02;0.30;;;13.20;99.90;;;;;;5073672;28;20047;-76
2022/10/15 05:24:09;;;;;;;1.58;0.50;;;13.20;99.90;;;;;;5073944;28;20430;-77
2022/10/15 05:26:35;;;;;;;0.70;0.20;;;13.20;99.90;;;;;;5073540;28;20103;-78
2022/10/15 05:29:01;;;;;;;0.40;0.30;;;13.20;99.90;;;;;;5073309;28;20519;-75
2022/10/15 05:31:28;;;;;;;0.95;0.47;;;13.30;99.90;;;;;;5071987;28;20040;-75
2022/10/15 05:33:54;;;;;;;1.20;0.40;;;13.30;99.90;;;;;;5072140;28;20036;-77
2022/10/15 05:36:26;;;;;;;0.65;0.40;;;13.30;99.90;;;;;;5073216;28;20101;-75
2022/10/15 05:38:59;;;;;;;1.10;0.50;;;13.30;99.90;;;;;;5072835;28;20193;-75
2022/10/15 05:41:26;;;;;;;2.00;0.28;;;13.30;99.90;;;;;;5073338;28;20127;-77
2022/10/15 05:43:55;;;;;;;3.92;0.32;;;13.30;99.90;;;;;;5071938;28;20063;-76
2022/10/15 05:46:21;;;;;;;1.90;0.60;;;13.30;99.90;;;;;;5073321;28;20064;-76
2022/10/15 05:48:51;;;;;;;2.85;0.75;;;13.30;99.90;;;;;;5072102;28;20089;-75
2022/10/15 05:51:18;;;;;;;1.05;0.45;;;13.20;99.90;;;;;;5073491;28;20068;-76
2022/10/15 05:53:45;;;;;;;0.75;0.40;;;13.30;99.90;;;;;;5073420;28;20036;-75
2022/10/15 05:56:11;;;;;;;0.90;0.30;;;13.30;99.90;;;;;;5070340;28;20154;-77
2022/10/15 05:58:39;;;;;;;0.57;0.17;;;13.30;99.90;;;;;;5058617;28;20029;-76
2022/10/15 06:01:08;;;;;;;0.30;0.28;;;13.30;99.90;;;;;;5050948;28;20473;-75
2022/10/15 06:03:34;;;;;;;0.40;0.32;;;13.30;99.90;;;;;;5051327;28;20171;-76
2022/10/15 06:06:01;;;;;;;0.60;0.25;;;13.30;99.90;;;;;;5051106;28;20056;-76
2022/10/15 06:08:29;;;;;;;0.60;0.30;;;13.40;99.90;;;;;;5056929;28;20430;-75
2022/10/15 06:11:00;;;;;;;0.90;0.40;;;13.40;99.90;;;;;;5071161;28;20044;-80
2022/10/15 06:13:26;;;;;;;0.60;0.30;;;13.40;99.90;;;;;;5069776;28;20128;-77
2022/10/15 06:15:52;;;;;;;1.10;0.50;;;13.30;99.90;;;;;;5070530;28;20506;-76
2022/10/15 06:18:18;;;;;;;0.30;0.30;;;13.30;99.90;;;;;;5072691;28;20471;-78
2022/10/15 06:20:49;;;;;;;2.55;0.50;;;13.30;99.90;;;;;;5074628;28;20041;-76
2022/10/15 06:23:15;;;;;;;0.85;0.45;;;13.30;99.90;;;;;;5072925;28;20039;-77
2022/10/15 06:25:40;;;;;;;0.80;0.40;;;13.30;99.90;;;;;;5061431;28;20044;-79
2022/10/15 06:28:08;;;;;;;1.05;0.40;;;13.30;99.90;;;;;;5057154;28;20400;-78
2022/10/15 06:30:34;;;;;;;5.72;0.45;;;13.30;99.90;;;;;;5067307;28;20097;-78
2022/10/15 06:33:01;;;;;;;0.43;0.40;;;13.40;99.90;;;;;;5073915;28;20075;-78
2022/10/15 06:35:32;;;;;;;0.30;0.20;;;13.50;99.90;;;;;;5076137;28;20513;-78
2022/10/15 06:38:03;;;;;;;0.77;0.35;;;13.50;99.90;;;;;;5076538;28;20047;-78
2022/10/15 06:40:29;;;;;;;0.68;0.30;;;13.50;99.90;;;;;;5076721;28;20032;-77
2022/10/15 06:43:01;;;;;;;0.63;0.25;;;13.60;99.90;;;;;;5076335;28;20044;-78
2022/10/15 06:45:27;;;;;;;0.40;0.35;;;13.60;99.90;;;;;;5075832;28;20044;-78
2022/10/15 06:47:53;;;;;;;0.85;0.50;;;13.60;99.90;;;;;;5076171;28;20090;-77
2022/10/15 06:50:19;;;;;;;0.47;0.30;;;13.70;99.90;;;;;;5075673;28;20123;-77
2022/10/15 06:52:44;;;;;;;2.70;0.50;;;13.70;99.90;;;;;;5075694;28;20083;-77
2022/10/15 06:55:10;;;;;;;1.30;0.38;;;13.80;99.90;;;;;;5074697;28;20044;-77
2022/10/15 06:57:36;;;;;;;0.55;0.40;;;13.80;99.90;;;;;;5076122;28;20094;-78
2022/10/15 07:00:03;;;;;;;2.78;0.47;;;13.80;99.90;;;;;;5075747;28;20044;-78
2022/10/15 07:02:28;;;;;;;0.32;0.30;;;13.90;99.90;;;;;;5076164;28;20060;-77
2022/10/15 07:04:54;;;;;;;2.80;0.47;;;13.90;99.90;;;;;;5075832;28;20039;-77
2022/10/15 07:07:20;;;;;;;6.50;0.77;;;14.00;99.90;;;;;;5069307;28;20056;-77
2022/10/15 07:09:46;;;;;;;0.40;0.38;;;13.90;99.90;;;;;;5074111;28;20050;-75
2022/10/15 07:12:12;;;;;;;2.28;0.98;;;13.90;99.90;;;;;;5072824;28;20564;-75
2022/10/15 07:14:38;;;;;;;0.90;0.30;;;14.00;99.90;;;;;;5073890;28;20085;-75
2022/10/15 07:17:05;;;;;;;1.60;0.70;;;14.10;99.90;;;;;;5073194;28;20127;-75
2022/10/15 07:19:31;;;;;;;1.20;0.50;;;14.50;99.90;;;;;;5073839;28;20060;-75
2022/10/15 07:21:57;;;;;;;0.60;0.50;;;15.00;99.90;;;;;;5073214;28;20036;-75
2022/10/15 07:24:23;;;;;;;1.05;0.45;;;15.70;99.90;;;;;;5074728;28;20864;-76
2022/10/15 07:26:50;;;;;;;1.85;0.50;;;16.00;99.90;;;;;;5073359;28;20139;-74
2022/10/15 07:29:17;;;;;;;1.05;0.50;;;15.80;99.90;;;;;;5072238;28;20439;-75
2022/10/15 07:31:43;;;;;;;1.33;0.32;;;15.60;99.90;;;;;;5072600;28;20078;-74
2022/10/15 07:34:09;;;;;;;1.45;0.47;;;15.50;99.90;;;;;;5059213;28;20068;-73
2022/10/15 07:36:35;;;;;;;0.73;0.30;;;15.70;99.90;;;;;;5064172;28;20044;-73
2022/10/15 07:39:00;;;;;;;2.22;0.47;;;15.70;99.90;;;;;;5070206;28;20040;-73
2022/10/15 07:41:26;;;;;;;0.50;0.43;;;15.50;99.90;;;;;;5069534;28;20071;-75
2022/10/15 07:43:52;;;;;;;0.90;0.40;;;15.40;99.90;;;;;;5067199;28;20033;-74
2022/10/15 07:46:19;;;;;;;0.73;0.50;;;15.40;99.90;;;;;;5072705;28;20056;-74
2022/10/15 07:48:44;;;;;;;0.63;0.43;;;15.60;99.90;;;;;;5073849;28;20132;-72
2022/10/15 07:51:11;;;;;;;0.77;0.43;;;;;;;;;;5070514;28;20130;-75
2022/10/15 07:53:37;;;;;;;1.27;0.70;;;16.40;99.90;;;;;;5070811;28;20488;-74
2022/10/15 07:56:06;;;;;;;1.00;0.50;;;16.60;99.90;;;;;;5072226;28;20044;-74
2022/10/15 07:58:34;;;;;;;1.08;0.60;;;16.70;99.90;;;;;;5070952;28;20562;-75
2022/10/15 08:01:07;;;;;;;0.60;0.40;;;16.60;99.90;;;;;;5072984;28;20066;-76
2022/10/15 08:03:33;;;;;;;1.10;0.68;;;16.40;99.90;;;;;;5069215;28;20044;-75
2022/10/15 08:06:01;;;;;;;1.77;0.60;;;16.30;99.90;;;;;;5070137;28;20499;-75
2022/10/15 08:08:27;;;;;;;1.80;0.70;;;16.10;99.90;;;;;;5071475;28;20075;-75
2022/10/15 08:10:52;;;;;;;1.15;0.68;;;16.20;99.90;;;;;;5072232;28;20075;-74
2022/10/15 08:13:19;;;;;;;1.08;0.70;;;16.30;99.90;;;;;;5070390;28;20028;-74
2022/10/15 08:15:45;;;;;;;0.40;0.40;;;16.40;99.90;;;;;;5071388;28;20055;-75
2022/10/15 08:18:11;;;;;;;2.72;0.63;;;16.60;99.90;;;;;;5071740;28;20120;-75
2022/10/15 08:20:37;;;;;;;0.40;0.30;;;16.70;99.90;;;;;;5069990;28;20044;-74
2022/10/15 08:23:04;;;;;;;0.30;0.30;;;16.60;99.90;;;;;;5050976;28;20051;-72
2022/10/15 08:25:31;;;;;;;5.57;0.47;;;17.00;99.90;;;;;;5073759;28;20127;-75
2022/10/15 08:27:57;;;;;;;0.80;0.40;;;17.40;99.90;;;;;;5071897;28;20044;-72
2022/10/15 08:30:23;;;;;;;0.68;0.40;;;17.70;99.90;;;;;;5069067;28;20369;-75
2022/10/15 08:32:49;;;;;;;0.40;0.30;;;17.80;99.90;;;;;;5070346;28;20446;-73
2022/10/15 08:35:15;;;;;;;4.30;0.50;;;17.90;99.90;;;;;;5068154;28;20119;-75
2022/10/15 08:37:41;;;;;;;0.95;0.55;;;18.20;99.90;;;;;;5071256;28;20049;-73
2022/10/15 08:40:09;;;;;;;1.42;0.50;;;18.60;99.90;;;;;;5069275;28;20174;-74
2022/10/15 08:42:40;;;;;;;0.28;0.28;;;18.70;99.90;;;;;;5071031;28;20043;-73
2022/10/15 08:45:33;;;;;;;1.17;0.52;;;19.50;99.90;;;;;;5067783;28;20041;-73
2022/10/15 08:48:09;;;;;;;2.10;0.55;;;19.60;99.90;;;;;;5070591;28;20089;-76
2022/10/15 08:50:41;;;;;;;1.58;0.57;;;19.50;99.90;;;;;;5070370;28;20047;-77
2022/10/15 08:53:14;;;;;;;2.65;0.57;;;19.30;99.90;;;;;;5069644;28;20044;-77
2022/10/15 08:55:43;;;;;;;0.65;0.43;;;19.40;99.90;;;;;;5072701;28;20063;-78
2022/10/15 08:58:21;;;;;;;1.23;0.40;;;19.20;99.90;;;;;;5071814;28;20068;-76
2022/10/15 09:00:55;;;;;;;2.58;0.50;;;18.80;99.90;;;;;;5061329;28;20039;-74
2022/10/15 09:03:50;;;;;;;0.77;0.50;;;18.80;99.90;;;;;;5081655;28;20046;-75
2022/10/15 09:06:38;;;;;;;1.23;0.60;;;18.90;99.90;;;;;;5071296;28;20101;-75
2022/10/15 09:09:16;;;;;;;2.38;0.40;;;19.00;99.90;;;;;;5066181;28;20055;-74
2022/10/15 09:12:03;;;;;;;1.10;0.60;;;19.40;99.90;;;;;;5071563;28;20060;-74
2022/10/15 09:14:34;;;;;;;2.80;0.55;;;19.80;99.90;;;;;;5073979;28;21018;-74
2022/10/15 09:17:13;;;;;;;0.43;0.40;;;19.90;99.90;;;;;;5075138;28;20044;-75
2022/10/15 09:19:41;;;;;;;2.15;0.38;;;19.80;99.90;;;;;;5071452;28;20049;-77
2022/10/15 09:22:13;;;;;;;0.90;0.40;;;19.70;99.90;;;;;;5069986;28;20044;-77
2022/10/15 09:24:40;;;;;;;0.90;0.68;;;;;;;;;;5070134;28;20412;-76
2022/10/15 09:27:34;;;;;;;1.08;0.43;;;20.00;99.90;;;;;;5071439;28;20476;-80
2022/10/15 09:30:06;;;;;;;0.93;0.38;;;20.20;99.90;;;;;;5071531;28;20033;-77
2022/10/15 09:32:42;;;;;;;0.90;0.55;;;20.40;99.90;;;;;;5071222;28;20042;-77
2022/10/15 09:35:14;;;;;;;0.73;0.40;;;20.50;99.90;;;;;;5070893;28;20090;-76
2022/10/15 09:37:52;;;;;;;1.95;0.45;;;20.50;99.90;;;;;;5066111;28;20044;-76
2022/10/15 09:40:48;;;;;;;0.45;0.30;;;20.50;99.90;;;;;;5051553;28;20045;-77
2022/10/15 09:43:26;;;;;;;1.10;0.57;;;20.50;99.90;;;;;;5051223;28;20044;-76
2022/10/15 09:45:52;;;;;;;7.60;1.13;;;20.40;99.90;;;;;;5050617;28;20057;-77
2022/10/15 09:48:19;;;;;;;1.35;0.52;;;20.50;99.90;;;;;;5058121;28;20442;-78
2022/10/15 09:51:14;;;;;;;0.98;0.30;;;20.80;99.90;;;;;;5069803;28;20039;-77
2022/10/15 09:54:03;;;;;;;3.13;0.63;;;21.20;99.90;;;;;;5073063;28;20127;-76
2022/10/15 09:56:41;;;;;;;1.55;0.55;;;21.20;99.90;;;;;;5056651;28;20032;-80
2022/10/15 09:59:17;;;;;;;3.30;0.50;;;20.60;99.90;;;;;;5071922;28;20029;-77
2022/10/15 10:02:04;;;;;;;2.03;0.35;;;20.80;99.90;;;;;;5073509;28;20033;-76
2022/10/15 10:04:32;;;;;;;0.75;0.30;;;20.70;99.90;;;;;;5074488;28;20079;-80
2022/10/15 10:07:02;;;;;;;0.40;0.30;;;20.50;99.90;;;;;;5075786;28;20542;-78
2022/10/15 10:09:32;;;;;;;1.05;0.30;;;20.50;99.90;;;;;;5076959;28;20085;-75
2022/10/15 10:12:04;;;;;;;0.40;0.40;;;20.50;99.90;;;;;;5071272;28;20039;-77
2022/10/15 10:14:44;;;;;;;1.42;0.50;;;20.50;99.90;;;;;;5075264;28;20510;-75
2022/10/15 10:17:16;;;;;;;0.65;0.30;;;20.50;99.90;;;;;;5069828;28;20539;-76
2022/10/15 10:19:44;;;;;;;0.68;0.50;;;20.40;99.90;;;;;;5098987;27;20044;-76
2022/10/15 10:22:20;;;;;;;0.50;0.30;;;20.50;99.90;;;;;;5074168;28;20036;-76
2022/10/15 10:24:47;;;;;;;0.82;0.40;;;20.60;99.90;;;;;;5072832;28;20048;-75
2022/10/15 10:27:24;;;;;;;0.63;0.50;;;20.30;99.90;;;;;;5074486;28;20637;-75
2022/10/15 10:30:00;;;;;;;0.68;0.43;;;20.50;99.90;;;;;;5073741;28;20503;-75
2022/10/15 10:32:30;;;;;;;0.45;0.20;;;20.70;99.90;;;;;;5073737;28;20063;-76
2022/10/15 10:34:58;;;;;;;2.63;0.38;;;20.80;99.90;;;;;;5070830;28;20534;-76
2022/10/15 10:37:24;;;;;;;1.38;0.60;;;20.80;99.90;;;;;;5072890;28;20044;-76
2022/10/15 10:39:58;;;;;;;0.47;0.40;;;20.90;99.90;;;;;;5073139;28;20040;-76
2022/10/15 10:42:25;;;;;;;0.77;0.45;;;20.90;99.90;;;;;;5072642;28;20044;-75
2022/10/15 10:44:52;;;;;;;0.90;0.40;;;21.10;99.90;;;;;;5074843;28;20063;-76
2022/10/15 10:47:23;;;;;;;0.47;0.38;;;21.20;99.90;;;;;;5074677;28;20064;-75
2022/10/15 10:49:54;;;;;;;0.70;0.40;;;20.90;99.90;;;;;;5070696;28;20138;-75
2022/10/15 10:52:30;;;;;;;6.18;1.95;;;20.40;99.90;;;;;;5071394;28;20040;-74
2022/10/15 10:55:07;;;;;;;4.70;1.08;;;20.40;99.90;;;;;;5072967;28;20047;-73
2022/10/15 10:58:00;;;;;;;0.75;0.50;;;20.20;99.90;;;;;;5071551;28;20068;-75
2022/10/15 11:00:40;;;;;;;0.50;0.40;;;20.50;99.90;;;;;;5068989;28;20041;-77
2022/10/15 11:03:19;;;;;;;0.68;0.50;;;20.90;99.90;;;;;;5071115;28;20111;-76
2022/10/15 11:05:46;;;;;;;1.30;0.77;;;21.10;99.90;;;;;;5069278;28;20094;-74
2022/10/15 11:08:18;;;;;;;0.77;0.40;;;21.50;99.90;;;;;;5072347;28;20557;-74
2022/10/15 11:11:04;;;;;;;0.50;0.40;;;22.00;99.90;;;;;;5072590;28;20370;-74
2022/10/15 11:13:52;;;;;;;1.00;0.55;;;21.80;99.90;;;;;;5068804;28;20052;-74
2022/10/15 11:16:27;;;;;;;2.00;0.70;;;21.80;99.90;;;;;;5071104;28;20042;-75
2022/10/15 11:19:20;;;;;;;1.00;0.40;;;21.90;99.90;;;;;;5055507;28;20515;-76
2022/10/15 11:22:03;;;;;;;2.95;0.70;;;22.00;99.90;;;;;;5055735;28;20041;-76
2022/10/15 11:24:34;;;;;;;1.60;0.55;;;22.10;99.90;;;;;;5062360;28;20127;-77
2022/10/15 11:27:21;;;;;;;1.08;0.70;;;22.00;99.90;;;;;;5075579;28;20076;-75
2022/10/15 11:29:50;;;;;;;0.50;0.40;;;22.10;99.90;;;;;;5076173;28;20029;-77
2022/10/15 11:32:19;;;;;;;0.85;0.60;;;22.00;99.90;;;;;;5072710;28;20098;-76
2022/10/15 11:35:03;;;;;;;1.02;0.55;;;21.90;99.90;;;;;;5074711;28;20526;-76
2022/10/15 11:37:29;;;;;;;0.80;0.55;;;21.80;99.90;;;;;;5060447;28;20044;-76
2022/10/15 11:40:01;;;;;;;2.50;0.77;;;21.90;99.90;;;;;;5088792;28;20065;-76
2022/10/15 11:42:45;;;;;;;0.63;0.50;;;22.10;99.90;;;;;;5073503;28;20036;-76
2022/10/15 11:45:14;;;;;;;0.52;0.30;;;22.10;99.90;;;;;;5074805;28;20036;-76
2022/10/15 11:48:18;;;;;;;1.38;0.80;;;22.30;99.90;;;;;;5073703;28;20048;-76
2022/10/15 11:51:11;;;;;;;1.77;0.90;;;22.20;99.90;;;;;;5068622;28;20036;-76
2022/10/15 11:53:58;;;;;;;0.73;0.50;;;21.90;99.90;;;;;;5075854;28;20040;-75
2022/10/15 11:56:33;;;;;;;1.42;0.70;;;21.80;99.90;;;;;;5073690;28;20047;-76
2022/10/15 11:59:11;;;;;;;2.65;0.82;;;21.70;99.90;;;;;;5074284;28;20045;-76
2022/10/15 12:01:47;;;;;;;3.53;0.60;;;21.80;99.90;;;;;;5073559;28;20173;-76
2022/10/15 12:04:37;;;;;;;4.80;0.70;;;21.70;99.90;;;;;;5055031;28;20041;-76
2022/10/15 12:07:10;;;;;;;1.27;0.93;;;21.50;99.90;;;;;;5069709;28;20117;-76
2022/10/15 12:09:40;;;;;;;1.90;0.80;;;21.60;99.90;;;;;;5103153;27;20769;-75
2022/10/15 12:12:11;;;;;;;;;;;21.70;99.90;;;;;;5070903;28;20036;-76
2022/10/15 12:14:47;;;;;;;0.73;0.57;;;22.00;99.90;;;;;;5070207;28;20436;-76
2022/10/15 12:17:46;;;;;;;1.45;0.57;;;21.80;99.90;;;;;;5072260;28;20119;-76
2022/10/15 12:20:20;;;;;;;1.38;0.50;;;22.00;99.90;;;;;;5071018;28;20071;-76
2022/10/15 12:22:46;;;;;;;2.08;0.52;;;22.20;99.90;;;;;;5070722;28;20036;-77
2022/10/15 12:25:33;;;;;;;2.55;0.68;;;21.90;99.90;;;;;;5071860;28;20055;-76
2022/10/15 12:28:14;;;;;;;0.60;0.40;;;22.00;99.90;;;;;;5072591;28;20082;-77
2022/10/15 12:30:52;;;;;;;1.95;0.40;;;22.00;99.90;;;;;;5070956;28;20040;-76
2022/10/15 12:33:35;;;;;;;0.95;0.35;;;21.90;99.90;;;;;;5071631;28;20434;-77
2022/10/15 12:36:28;;;;;;;0.50;0.30;;;22.10;99.90;;;;;;5071089;28;20177;-76
2022/10/15 12:39:06;;;;;;;0.20;0.20;;;22.30;99.90;;;;;;5073044;28;20503;-75
2022/10/15 12:41:40;;;;;;;0.80;0.28;;;22.50;99.90;;;;;;5071181;28;20127;-76
2022/10/15 12:44:34;;;;;;;0.30;0.20;;;22.60;99.90;;;;;;5071401;28;20086;-75
2022/10/15 12:47:00;;;;;;;0.30;0.28;;;22.70;99.90;;;;;;5072166;28;20139;-76
2022/10/15 12:49:26;;;;;;;0.30;0.30;;;22.40;99.90;;;;;;5070117;28;20119;-76
2022/10/15 12:51:58;;;;;;;0.98;0.30;;;22.40;99.90;;;;;;5071809;28;20039;-75
2022/10/15 12:54:44;;;;;;;0.20;0.20;;;22.20;99.90;;;;;;5072032;28;20538;-74
2022/10/15 12:57:35;;;;;;;1.33;0.30;;;22.40;99.90;;;;;;5060237;28;20056;-76
2022/10/15 13:00:21;;;;;;;0.13;0.13;;;22.50;99.90;;;;;;5071838;28;20127;-77
2022/10/15 13:02:48;;;;;;;3.22;0.30;;;22.30;99.90;;;;;;5071639;28;20051;-76
2022/10/15 13:05:33;;;;;;;0.10;0.10;;;22.60;99.90;;;;;;5072070;28;20032;-77
2022/10/15 13:08:01;;;;;;;1.20;0.35;;;22.80;99.90;;;;;;5069220;28;20040;-77
2022/10/15 13:10:27;;;;;;;2.58;0.50;;;22.50;99.90;;;;;;5070052;28;20040;-76